createdAt,value
2018-08-04T00:01:15.471Z,24.92
2018-08-04T00:03:44.621Z,25.11
2018-08-04T00:06:13.442Z,24.91
2018-08-04T00:08:42.457Z,24.86
2018-08-04T00:11:11.448Z,24.87
2018-08-04T00:13:40.292Z,24.80
2018-08-04T00:16:09.162Z,24.75
2018-08-04T00:18:38.028Z,24.72
2018-08-04T00:21:06.878Z,24.64
2018-08-04T00:23:35.741Z,24.58
2018-08-04T00:26:04.597Z,24.56
2018-08-04T00:28:33.428Z,24.53
2018-08-04T00:31:02.288Z,24.51
2018-08-04T00:33:31.212Z,24.49
2018-08-04T00:36:00.104Z,24.40
2018-08-04T00:38:28.984Z,24.39
2018-08-04T00:40:57.884Z,24.51
2018-08-04T00:43:26.749Z,24.32
2018-08-04T00:45:55.872Z,24.25
2018-08-04T00:48:24.664Z,24.19
2018-08-04T00:50:53.492Z,24.15
2018-08-04T00:53:22.342Z,24.08
2018-08-04T00:55:54.275Z,24.04
2018-08-04T00:58:23.134Z,24.00
2018-08-04T01:00:51.978Z,23.96
2018-08-04T01:03:21.058Z,23.90
2018-08-04T01:05:49.909Z,23.88
2018-08-04T01:08:18.771Z,23.83
2018-08-04T01:10:47.619Z,23.78
2018-08-04T01:13:16.429Z,23.78
2018-08-04T01:15:45.290Z,24.02
2018-08-04T01:18:17.734Z,23.82
2018-08-04T01:20:46.552Z,23.80
2018-08-04T01:23:15.565Z,23.79
2018-08-04T01:25:44.419Z,23.69
2018-08-04T01:28:13.253Z,23.62
2018-08-04T01:30:42.096Z,23.63
2018-08-04T01:33:10.933Z,23.61
2018-08-04T01:35:39.776Z,23.54
2018-08-04T01:38:08.603Z,23.47
2018-08-04T01:40:37.519Z,23.41
2018-08-04T01:43:06.361Z,23.50
2018-08-04T01:45:35.200Z,23.51
2018-08-04T01:48:04.033Z,23.58
2018-08-04T01:50:32.880Z,23.85
2018-08-04T01:53:01.699Z,23.64
2018-08-04T01:55:30.614Z,23.58
2018-08-04T01:57:59.433Z,23.56
2018-08-04T02:00:28.283Z,23.57
2018-08-04T02:02:57.111Z,23.78
2018-08-04T02:05:26.104Z,23.59
2018-08-04T02:07:54.983Z,23.59
2018-08-04T02:10:23.999Z,23.49
2018-08-04T02:12:52.851Z,23.38
2018-08-04T02:15:21.693Z,23.39
2018-08-04T02:17:50.544Z,23.34
2018-08-04T02:20:19.362Z,23.32
2018-08-04T02:22:49.427Z,23.31
2018-08-04T02:25:18.281Z,23.26
2018-08-04T02:27:47.132Z,23.22
2018-08-04T02:30:15.954Z,23.16
2018-08-04T02:32:44.818Z,23.12
2018-08-04T02:35:13.657Z,23.15
2018-08-04T02:37:42.534Z,23.11
2018-08-04T02:40:11.381Z,23.10
2018-08-04T02:42:40.244Z,23.11
2018-08-04T02:45:10.299Z,23.15
2018-08-04T02:47:39.158Z,23.12
2018-08-04T02:50:08.653Z,23.12
2018-08-04T02:52:37.579Z,23.11
2018-08-04T02:55:06.534Z,23.14
2018-08-04T02:57:35.380Z,23.10
2018-08-04T03:00:04.568Z,23.07
2018-08-04T03:02:33.761Z,23.01
2018-08-04T03:05:02.778Z,22.97
2018-08-04T03:07:31.760Z,22.86
2018-08-04T03:10:00.650Z,22.82
2018-08-04T03:12:29.513Z,22.81
2018-08-04T03:14:58.504Z,22.81
2018-08-04T03:17:27.351Z,22.81
2018-08-04T03:19:56.176Z,22.72
2018-08-04T03:22:25.049Z,22.66
2018-08-04T03:24:53.891Z,22.64
2018-08-04T03:27:22.735Z,22.65
2018-08-04T03:29:51.572Z,22.54
2018-08-04T03:32:20.463Z,22.49
2018-08-04T03:34:49.300Z,22.44
2018-08-04T03:37:18.178Z,22.42
2018-08-04T03:39:46.998Z,22.38
2018-08-04T03:42:15.878Z,22.37
2018-08-04T03:44:52.019Z,22.31
2018-08-04T03:47:21.021Z,22.29
2018-08-04T03:49:49.853Z,22.22
2018-08-04T03:52:18.696Z,22.19
2018-08-04T03:54:47.531Z,22.09
2018-08-04T03:57:16.387Z,22.09
2018-08-04T03:59:45.228Z,22.11
2018-08-04T04:02:14.144Z,22.12
2018-08-04T04:04:43.020Z,22.14
2018-08-04T04:07:11.922Z,22.15
2018-08-04T04:09:40.923Z,22.11
2018-08-04T04:12:10.053Z,22.12
2018-08-04T04:14:39.150Z,22.06
2018-08-04T04:17:08.054Z,22.02
2018-08-04T04:19:36.896Z,21.98
2018-08-04T04:22:05.741Z,21.98
2018-08-04T04:24:34.596Z,22.03
2018-08-04T04:27:03.441Z,22.00
2018-08-04T04:29:32.490Z,21.97
2018-08-04T04:32:01.322Z,21.93
2018-08-04T04:34:30.290Z,21.90
2018-08-04T04:36:59.232Z,21.86
2018-08-04T04:39:28.010Z,21.77
2018-08-04T04:41:56.850Z,21.76
2018-08-04T04:44:25.698Z,21.76
2018-08-04T04:46:54.556Z,21.72
2018-08-04T04:49:26.262Z,21.79
2018-08-04T04:51:55.130Z,21.79
2018-08-04T04:54:23.995Z,21.68
2018-08-04T04:56:52.855Z,21.96
2018-08-04T04:59:21.830Z,21.75
2018-08-04T05:01:50.946Z,21.75
2018-08-04T05:04:19.696Z,21.75
2018-08-04T05:06:48.564Z,21.69
2018-08-04T05:09:17.436Z,21.63
2018-08-04T05:11:46.516Z,21.60
2018-08-04T05:14:15.392Z,21.55
2018-08-04T05:16:44.241Z,21.54
2018-08-04T05:19:13.150Z,21.56
2018-08-04T05:21:42.036Z,21.57
2018-08-04T05:24:10.889Z,21.65
2018-08-04T05:26:39.753Z,21.97
2018-08-04T05:29:08.606Z,21.81
2018-08-04T05:31:37.473Z,21.82
2018-08-04T05:34:07.771Z,22.15
2018-08-04T05:36:36.653Z,21.98
2018-08-04T05:39:08.230Z,22.01
2018-08-04T05:41:37.118Z,22.07
2018-08-04T05:44:06.113Z,22.15
2018-08-04T05:46:34.982Z,22.20
2018-08-04T05:49:03.827Z,22.27
2018-08-04T05:51:32.817Z,22.32
2018-08-04T05:54:01.704Z,22.40
2018-08-04T05:56:30.583Z,22.78
2018-08-04T05:58:59.403Z,23.01
2018-08-04T06:01:28.252Z,22.88
2018-08-04T06:03:57.108Z,22.98
2018-08-04T06:06:26.047Z,23.14
2018-08-04T06:08:55.053Z,23.25
2018-08-04T06:11:23.883Z,23.66
2018-08-04T06:13:52.726Z,23.70
2018-08-04T06:16:24.972Z,24.09
2018-08-04T06:18:53.844Z,24.35
2018-08-04T06:21:22.691Z,24.48
2018-08-04T06:23:51.579Z,24.69
2018-08-04T06:26:20.423Z,25.61
2018-08-04T06:28:49.284Z,27.74
2018-08-04T06:31:18.138Z,29.23
2018-08-04T06:33:46.991Z,29.27
2018-08-04T06:36:15.853Z,30.46
2018-08-04T06:38:44.769Z,32.56
2018-08-04T06:41:13.605Z,34.14
2018-08-04T06:43:42.501Z,35.33
2018-08-04T06:46:11.372Z,35.44
2018-08-04T06:48:40.214Z,36.70
2018-08-04T06:51:09.062Z,37.83
2018-08-04T06:53:37.933Z,38.17
2018-08-04T06:56:06.783Z,38.64
2018-08-04T06:58:35.605Z,39.42
2018-08-04T07:01:04.588Z,40.05
2018-08-04T07:03:33.460Z,40.70
2018-08-04T07:06:02.409Z,40.82
2018-08-04T07:08:31.249Z,41.22
2018-08-04T07:11:00.097Z,41.34
2018-08-04T07:13:28.973Z,41.81
2018-08-04T07:15:57.808Z,42.00
2018-08-04T07:18:26.688Z,42.13
2018-08-04T07:20:56.102Z,42.43
2018-08-04T07:23:24.974Z,42.38
2018-08-04T07:25:53.807Z,42.97
2018-08-04T07:28:22.700Z,43.29
2018-08-04T07:30:51.557Z,43.40
2018-08-04T07:33:20.427Z,43.33
2018-08-04T07:35:49.301Z,43.51
2018-08-04T07:38:18.161Z,43.43
2018-08-04T07:40:46.995Z,43.41
2018-08-04T07:43:15.885Z,43.46
2018-08-04T07:45:44.895Z,43.71
2018-08-04T07:48:13.783Z,43.88
2018-08-04T07:50:42.674Z,44.02
2018-08-04T07:53:11.563Z,44.32
2018-08-04T07:55:40.454Z,44.79
2018-08-04T07:58:09.354Z,45.07
2018-08-04T08:00:38.322Z,44.66
2018-08-04T08:03:07.342Z,45.40
2018-08-04T08:05:36.354Z,45.86
2018-08-04T08:08:05.222Z,46.13
2018-08-04T08:10:34.229Z,45.75
2018-08-04T08:13:02.917Z,45.78
2018-08-04T08:15:31.778Z,45.70
2018-08-04T08:18:00.596Z,45.90
2018-08-04T08:20:29.460Z,45.64
2018-08-04T08:22:58.344Z,45.42
2018-08-04T08:25:27.321Z,45.88
2018-08-04T08:27:56.254Z,45.57
2018-08-04T08:30:25.121Z,46.08
2018-08-04T08:32:53.940Z,45.50
2018-08-04T08:35:22.822Z,45.96
2018-08-04T08:37:51.641Z,46.26
2018-08-04T08:40:20.573Z,46.16
2018-08-04T08:42:49.331Z,45.90
2018-08-04T08:45:18.174Z,45.64
2018-08-04T08:47:47.037Z,45.52
2018-08-04T08:50:33.742Z,45.72
2018-08-04T08:53:02.656Z,45.66
2018-08-04T08:55:31.445Z,46.09
2018-08-04T08:58:00.322Z,45.82
2018-08-04T09:00:31.959Z,45.61
2018-08-04T09:03:00.866Z,45.80
2018-08-04T09:05:30.114Z,45.78
2018-08-04T09:07:59.196Z,46.35
2018-08-04T09:10:28.252Z,46.55
2018-08-04T09:13:00.280Z,46.37
2018-08-04T09:15:29.288Z,46.55
2018-08-04T09:17:58.328Z,46.16
2018-08-04T09:20:27.454Z,45.72
2018-08-04T09:22:56.611Z,44.93
2018-08-04T09:25:25.667Z,45.22
2018-08-04T09:27:54.749Z,45.18
2018-08-04T09:30:23.880Z,45.29
2018-08-04T09:32:52.947Z,45.42
2018-08-04T09:35:22.308Z,45.54
2018-08-04T09:37:51.241Z,45.62
2018-08-04T09:40:20.265Z,45.49
2018-08-04T09:42:51.125Z,45.62
2018-08-04T09:45:20.266Z,45.57
2018-08-04T09:47:49.196Z,45.33
2018-08-04T09:50:18.315Z,45.37
2018-08-04T09:52:50.724Z,45.58
2018-08-04T09:55:19.795Z,45.93
2018-08-04T09:57:48.842Z,45.50
2018-08-04T10:00:35.582Z,45.64
2018-08-04T10:03:04.619Z,45.93
2018-08-04T10:05:33.872Z,45.99
2018-08-04T10:08:05.773Z,45.80
2018-08-04T10:10:36.649Z,46.43
2018-08-04T10:13:06.001Z,46.33
2018-08-04T10:15:36.873Z,46.52
2018-08-04T10:18:06.303Z,46.11
2018-08-04T10:20:35.370Z,45.49
2018-08-04T10:23:04.351Z,44.36
2018-08-04T10:25:33.563Z,43.08
2018-08-04T10:28:05.018Z,41.87
2018-08-04T10:30:34.226Z,41.54
2018-08-04T10:33:04.169Z,41.13
2018-08-04T10:35:33.227Z,41.31
2018-08-04T10:38:02.551Z,40.64
2018-08-04T10:40:31.513Z,40.67
2018-08-04T10:43:00.733Z,41.60
2018-08-04T10:45:30.067Z,41.97
2018-08-04T10:47:59.456Z,41.10
2018-08-04T10:50:28.681Z,41.21
2018-08-04T10:52:57.757Z,42.04
2018-08-04T10:55:26.831Z,42.24
2018-08-04T10:57:55.961Z,42.49
2018-08-04T11:00:25.146Z,42.78
2018-08-04T11:02:55.955Z,42.58
2018-08-04T11:05:25.194Z,42.91
2018-08-04T11:07:54.422Z,43.34
2018-08-04T11:10:23.490Z,43.21
2018-08-04T11:12:54.457Z,43.28
2018-08-04T11:15:23.240Z,43.56
2018-08-04T11:17:55.303Z,43.78
2018-08-04T11:20:24.474Z,43.66
2018-08-04T11:22:56.247Z,43.91
2018-08-04T11:25:25.242Z,43.50
2018-08-04T11:27:54.352Z,43.38
2018-08-04T11:30:23.335Z,43.64
2018-08-04T11:32:52.349Z,43.65
2018-08-04T11:35:21.302Z,43.00
2018-08-04T11:37:50.622Z,41.39
2018-08-04T11:40:19.635Z,40.84
2018-08-04T11:42:48.789Z,41.26
2018-08-04T11:45:17.912Z,41.87
2018-08-04T11:47:47.008Z,42.46
2018-08-04T11:50:17.706Z,42.50
2018-08-04T11:52:46.742Z,41.79
2018-08-04T11:55:15.844Z,40.97
2018-08-04T11:57:45.002Z,40.15
2018-08-04T12:00:14.059Z,40.09
2018-08-04T12:02:43.096Z,39.83
2018-08-04T12:05:12.236Z,39.63
2018-08-04T12:07:41.454Z,39.12
2018-08-04T12:10:10.724Z,38.75
2018-08-04T12:12:39.710Z,38.21
2018-08-04T12:15:10.571Z,37.65
2018-08-04T12:17:39.506Z,37.13
2018-08-04T12:20:08.811Z,36.86
2018-08-04T12:22:37.752Z,36.93
2018-08-04T12:25:06.716Z,36.69
2018-08-04T12:27:37.913Z,36.79
2018-08-04T12:30:08.167Z,37.09
2018-08-04T12:32:37.751Z,37.03
2018-08-04T12:35:07.685Z,37.16
2018-08-04T12:37:36.787Z,37.12
2018-08-04T12:40:06.299Z,37.09
2018-08-04T12:42:35.439Z,36.99
2018-08-04T12:45:06.478Z,36.86
2018-08-04T12:47:33.760Z,36.69
2018-08-04T12:50:02.904Z,36.49
2018-08-04T12:52:31.922Z,36.61
2018-08-04T12:55:01.113Z,36.72
2018-08-04T12:57:30.180Z,36.85
2018-08-04T12:59:59.245Z,36.56
2018-08-04T13:02:31.460Z,36.03
2018-08-04T13:05:00.526Z,35.96
2018-08-04T13:07:29.834Z,36.01
2018-08-04T13:09:59.108Z,36.17
2018-08-04T13:12:28.279Z,36.13
2018-08-04T13:14:57.431Z,36.12
2018-08-04T13:17:29.205Z,36.15
2018-08-04T13:19:58.305Z,36.18
2018-08-04T13:22:27.412Z,36.38
2018-08-04T13:24:56.367Z,36.68
2018-08-04T13:27:25.512Z,36.75
2018-08-04T13:29:54.686Z,36.41
2018-08-04T13:32:23.904Z,35.98
2018-08-04T13:34:53.002Z,35.98
2018-08-04T13:37:22.164Z,36.02
2018-08-04T13:39:51.282Z,35.80
2018-08-04T13:42:20.282Z,35.40
2018-08-04T13:44:49.369Z,35.43
2018-08-04T13:47:18.528Z,35.62
2018-08-04T13:49:47.610Z,35.63
2018-08-04T13:52:16.810Z,35.52
2018-08-04T13:54:46.081Z,35.41
2018-08-04T13:57:15.757Z,35.09
2018-08-04T13:59:47.049Z,35.03
2018-08-04T14:02:18.492Z,34.98
2018-08-04T14:04:47.843Z,35.04
2018-08-04T14:07:17.197Z,35.32
2018-08-04T14:09:46.388Z,35.47
2018-08-04T14:12:15.619Z,35.38
2018-08-04T14:14:44.758Z,35.07
2018-08-04T14:17:13.905Z,35.17
2018-08-04T14:19:43.153Z,35.18
2018-08-04T14:22:15.275Z,34.97
2018-08-04T14:24:44.327Z,34.85
2018-08-04T14:27:13.488Z,34.78
2018-08-04T14:29:45.351Z,34.60
2018-08-04T14:32:14.597Z,34.68
2018-08-04T14:34:43.664Z,34.63
2018-08-04T14:37:12.783Z,34.47
2018-08-04T14:39:41.884Z,34.38
2018-08-04T14:42:11.032Z,34.20
2018-08-04T14:44:42.318Z,34.16
2018-08-04T14:47:11.504Z,34.06
2018-08-04T14:49:40.693Z,33.88
2018-08-04T14:52:09.599Z,33.88
2018-08-04T14:54:38.646Z,33.90
2018-08-04T14:57:07.914Z,33.84
2018-08-04T14:59:36.988Z,33.70
2018-08-04T15:02:06.658Z,33.50
2018-08-04T15:04:35.885Z,33.46
2018-08-04T15:07:05.144Z,33.40
2018-08-04T15:09:34.385Z,33.33
2018-08-04T15:12:03.450Z,33.15
2018-08-04T15:14:32.733Z,33.17
2018-08-04T15:17:01.737Z,33.06
2018-08-04T15:19:30.982Z,33.17
2018-08-04T15:22:00.207Z,33.24
2018-08-04T15:24:29.278Z,33.23
2018-08-04T15:26:58.443Z,33.23
2018-08-04T15:29:27.680Z,33.21
2018-08-04T15:31:56.809Z,33.12
2018-08-04T15:34:26.191Z,33.13
2018-08-04T15:36:56.985Z,33.01
2018-08-04T15:39:26.082Z,32.91
2018-08-04T15:41:55.087Z,32.73
2018-08-04T15:44:24.101Z,32.76
2018-08-04T15:46:53.281Z,32.63
2018-08-04T15:49:25.194Z,32.60
2018-08-04T15:51:54.260Z,32.55
2018-08-04T15:54:23.343Z,32.41
2018-08-04T15:56:52.238Z,32.33
2018-08-04T15:59:23.913Z,32.22
2018-08-04T16:01:53.096Z,32.13
2018-08-04T16:04:22.053Z,32.15
2018-08-04T16:06:54.150Z,32.07
2018-08-04T16:09:23.192Z,31.93
2018-08-04T16:11:52.237Z,31.81
2018-08-04T16:14:21.095Z,31.71
2018-08-04T16:16:50.001Z,31.59
2018-08-04T16:19:18.794Z,31.53
2018-08-04T16:21:47.670Z,31.46
2018-08-04T16:24:16.590Z,31.45
2018-08-04T16:26:45.405Z,31.47
2018-08-04T16:29:14.283Z,31.50
2018-08-04T16:31:43.147Z,31.42
2018-08-04T16:34:12.001Z,31.42
2018-08-04T16:36:40.851Z,31.26
2018-08-04T16:39:10.454Z,31.21
2018-08-04T16:41:39.504Z,31.05
2018-08-04T16:44:08.309Z,31.02
2018-08-04T16:46:37.160Z,30.96
2018-08-04T16:49:05.991Z,30.85
2018-08-04T16:51:34.830Z,30.72
2018-08-04T16:54:03.671Z,30.67
2018-08-04T16:56:32.524Z,30.64
2018-08-04T16:59:01.370Z,30.56
2018-08-04T17:01:30.230Z,30.48
2018-08-04T17:04:02.972Z,30.28
2018-08-04T17:06:31.896Z,30.22
2018-08-04T17:09:00.892Z,30.09
2018-08-04T17:11:29.762Z,29.90
2018-08-04T17:13:58.611Z,29.85
2018-08-04T17:16:27.566Z,29.66
2018-08-04T17:18:56.359Z,29.51
2018-08-04T17:21:25.209Z,29.49
2018-08-04T17:23:54.043Z,29.44
2018-08-04T17:26:22.971Z,29.33
2018-08-04T17:28:51.836Z,29.29
2018-08-04T17:31:20.704Z,29.31
2018-08-04T17:33:49.824Z,29.33
2018-08-04T17:36:18.669Z,29.32
2018-08-04T17:38:47.529Z,29.30
2018-08-04T17:41:16.418Z,29.23
2018-08-04T17:43:45.243Z,29.24
2018-08-04T17:46:14.170Z,29.11
2018-08-04T17:48:46.566Z,29.00
2018-08-04T17:51:15.430Z,28.87
2018-08-04T17:53:44.285Z,28.62
2018-08-04T17:56:13.122Z,28.57
2018-08-04T17:58:41.971Z,28.45
2018-08-04T18:01:10.833Z,28.30
2018-08-04T18:03:39.718Z,28.14
2018-08-04T18:06:08.611Z,28.08
2018-08-04T18:08:37.645Z,27.98
2018-08-04T18:11:09.593Z,27.99
2018-08-04T18:13:38.618Z,27.95
2018-08-04T18:16:07.436Z,27.91
2018-08-04T18:18:36.291Z,27.84
2018-08-04T18:21:05.161Z,27.85
2018-08-04T18:23:34.016Z,27.78
2018-08-04T18:26:02.870Z,27.70
2018-08-04T18:28:31.731Z,27.66
2018-08-04T18:31:00.629Z,27.68
2018-08-04T18:33:32.526Z,27.59
2018-08-04T18:36:01.365Z,27.50
2018-08-04T18:38:30.208Z,27.39
2018-08-04T18:40:59.025Z,27.29
2018-08-04T18:43:27.898Z,27.25
2018-08-04T18:45:56.744Z,27.14
2018-08-04T18:48:25.614Z,27.01
2018-08-04T18:50:54.499Z,26.91
2018-08-04T18:53:23.364Z,26.83
2018-08-04T18:55:58.506Z,26.80
2018-08-04T18:58:27.364Z,26.73
2018-08-04T19:00:56.225Z,26.66
2018-08-04T19:03:25.062Z,26.52
2018-08-04T19:05:53.909Z,26.43
2018-08-04T19:08:22.753Z,26.27
2018-08-04T19:10:51.655Z,26.18
2018-08-04T19:13:20.609Z,26.10
2018-08-04T19:15:49.572Z,25.98
2018-08-04T19:18:19.766Z,26.01
2018-08-04T19:20:48.781Z,25.98
2018-08-04T19:23:17.640Z,25.91
2018-08-04T19:25:46.507Z,25.76
2018-08-04T19:28:15.413Z,25.70
2018-08-04T19:30:44.240Z,25.63
2018-08-04T19:33:13.086Z,25.58
2018-08-04T19:35:41.981Z,25.52
2018-08-04T19:38:10.822Z,25.54
2018-08-04T19:40:41.319Z,25.47
2018-08-04T19:43:10.180Z,25.42
2018-08-04T19:45:39.046Z,25.35
2018-08-04T19:48:08.009Z,25.25
2018-08-04T19:50:36.825Z,25.11
2018-08-04T19:53:06.021Z,25.13
2018-08-04T19:55:34.882Z,25.11
2018-08-04T19:58:03.784Z,25.13
2018-08-04T20:00:32.648Z,25.04
2018-08-04T20:03:02.967Z,25.01
2018-08-04T20:05:31.840Z,24.88
2018-08-04T20:08:00.711Z,24.87
2018-08-04T20:10:29.609Z,24.82
2018-08-04T20:12:58.466Z,24.83
2018-08-04T20:15:27.287Z,24.88
2018-08-04T20:17:56.144Z,24.73
2018-08-04T20:20:25.040Z,24.70
2018-08-04T20:22:53.927Z,24.69
2018-08-04T20:25:22.889Z,24.68
2018-08-04T20:27:51.740Z,24.63
2018-08-04T20:30:20.644Z,24.60
2018-08-04T20:32:49.489Z,24.47
2018-08-04T20:35:18.349Z,24.40
2018-08-04T20:37:47.341Z,24.38
2018-08-04T20:40:16.183Z,24.27
2018-08-04T20:42:45.063Z,24.26
2018-08-04T20:45:13.954Z,24.34
2018-08-04T20:51:11.154Z,24.18
2018-08-04T20:53:40.016Z,24.08
2018-08-04T20:56:09.111Z,24.02
2018-08-04T20:58:37.954Z,23.97
2018-08-04T21:01:35.458Z,23.88
2018-08-04T21:04:04.498Z,23.88
2018-08-04T21:06:33.297Z,23.74
2018-08-04T21:09:09.384Z,23.72
2018-08-04T21:11:53.311Z,23.66
2018-08-04T21:14:23.447Z,23.56
2018-08-04T21:16:53.169Z,23.53
2018-08-04T21:19:22.861Z,23.45
2018-08-04T21:21:51.757Z,23.33
2018-08-04T21:24:21.856Z,23.35
2018-08-04T21:26:51.950Z,23.27
2018-08-04T21:29:21.305Z,23.26
2018-08-04T21:31:50.151Z,23.20
2018-08-04T21:34:19.219Z,23.16
2018-08-04T21:36:48.046Z,23.09
2018-08-04T21:39:18.209Z,23.02
2018-08-04T21:41:47.491Z,23.02
2018-08-04T21:44:16.503Z,23.06
2018-08-04T21:46:47.433Z,23.07
2018-08-04T21:49:16.320Z,23.15
2018-08-04T21:51:49.004Z,23.04
2018-08-04T21:54:19.920Z,23.07
2018-08-04T21:56:47.607Z,23.01
2018-08-04T21:59:16.591Z,22.97
2018-08-04T22:01:55.322Z,23.02
2018-08-04T22:04:24.240Z,22.77
2018-08-04T22:07:26.190Z,22.69
2018-08-04T22:09:54.552Z,22.55
2018-08-04T22:12:23.412Z,22.51
2018-08-04T22:14:52.283Z,22.48
2018-08-04T22:17:21.131Z,22.42
2018-08-04T22:19:49.983Z,22.64
2018-08-04T22:22:19.026Z,22.40
2018-08-04T22:24:47.848Z,22.40
2018-08-04T22:27:16.711Z,22.39
2018-08-04T22:29:45.566Z,22.41
2018-08-04T22:32:20.519Z,22.35
2018-08-04T22:34:49.397Z,22.31
2018-08-04T22:37:18.249Z,22.22
2018-08-04T22:39:47.192Z,22.13
2018-08-04T22:42:16.017Z,22.09
2018-08-04T22:45:41.770Z,22.07
2018-08-04T22:48:10.613Z,21.95
2018-08-04T22:50:39.504Z,21.89
2018-08-04T22:53:08.560Z,21.80
2018-08-04T22:55:37.564Z,21.76
2018-08-04T22:58:06.416Z,21.70
2018-08-04T23:00:35.299Z,21.64
2018-08-04T23:03:04.684Z,21.58
2018-08-04T23:05:33.639Z,21.54
2018-08-04T23:08:02.804Z,21.50
2018-08-04T23:10:31.936Z,21.44
2018-08-04T23:13:00.790Z,21.41
2018-08-04T23:15:30.053Z,21.33
2018-08-04T23:17:59.154Z,21.32
2018-08-04T23:20:28.440Z,21.31
2018-08-04T23:22:57.345Z,21.28
2018-08-04T23:25:26.201Z,21.27
2018-08-04T23:27:55.052Z,21.22
2018-08-04T23:30:23.923Z,21.16
2018-08-04T23:32:53.458Z,21.41
2018-08-04T23:35:23.793Z,21.10
2018-08-04T23:37:52.670Z,21.10
2018-08-04T23:40:21.886Z,21.06
2018-08-04T23:42:50.760Z,21.14
2018-08-04T23:45:19.824Z,21.09
2018-08-04T23:47:48.718Z,20.98
2018-08-04T23:50:17.673Z,20.98
2018-08-04T23:52:46.514Z,20.95
2018-08-04T23:55:15.358Z,21.24
2018-08-04T23:57:54.333Z,20.96
